sensor_id;sensor_type;location;lat;lon;timestamp;pressure;altitude;pressure_sealevel;temperature
68012;BMP180;54794;48.348;7.878;2022-10-31T14:47:20;99008.00;;;17.60
68012;BMP180;54794;48.348;7.878;2022-10-31T14:50:21;99010.00;;;18.00
68012;BMP180;54794;48.348;7.878;2022-10-31T14:52:56;99014.00;;;18.20
68012;BMP180;54794;48.348;7.878;2022-10-31T14:55:26;99013.00;;;18.10
68012;BMP180;54794;48.348;7.878;2022-10-31T14:58:00;99016.00;;;18.20
68012;BMP180;54794;48.348;7.878;2022-10-31T15:00:31;99017.00;;;18.20
68012;BMP180;54794;48.348;7.878;2022-10-31T15:03:16;99023.00;;;18.20
68012;BMP180;54794;48.348;7.878;2022-10-31T15:05:55;99014.00;;;18.20
68012;BMP180;54794;48.348;7.878;2022-10-31T15:11:16;99013.00;;;18.10
68012;BMP180;54794;48.348;7.878;2022-10-31T15:13:55;99014.00;;;17.90
68012;BMP180;54794;48.348;7.878;2022-10-31T15:16:26;99016.00;;;17.80
68012;BMP180;54794;48.348;7.878;2022-10-31T15:18:59;99012.00;;;17.60
68012;BMP180;54794;48.348;7.878;2022-10-31T15:21:28;99016.00;;;17.90
68012;BMP180;54794;48.348;7.878;2022-10-31T15:23:58;98996.00;;;18.00
68012;BMP180;54794;48.348;7.878;2022-10-31T15:26:38;98994.00;;;17.90
68012;BMP180;54794;48.348;7.878;2022-10-31T15:29:19;98988.00;;;17.80
68012;BMP180;54794;48.348;7.878;2022-10-31T15:32:12;98996.00;;;17.50
68012;BMP180;54794;48.348;7.878;2022-10-31T15:34:44;99006.00;;;17.40
68012;BMP180;54794;48.348;7.878;2022-10-31T15:37:13;99005.00;;;17.70
68012;BMP180;54794;48.348;7.878;2022-10-31T15:39:45;99003.00;;;17.90
68012;BMP180;54794;48.348;7.878;2022-10-31T15:42:40;98999.00;;;18.00
68012;BMP180;54794;48.348;7.878;2022-10-31T15:47:38;99005.00;;;17.90
68012;BMP180;54794;48.348;7.878;2022-10-31T15:50:27;99012.00;;;18.00
68012;BMP180;54794;48.348;7.878;2022-10-31T15:52:55;99010.00;;;17.70
68012;BMP180;54794;48.348;7.878;2022-10-31T15:55:26;99014.00;;;17.70
68012;BMP180;54794;48.348;7.878;2022-10-31T15:58:02;99018.00;;;17.50
68012;BMP180;54794;48.348;7.878;2022-10-31T16:00:34;99007.00;;;17.70
68012;BMP180;54794;48.348;7.878;2022-10-31T16:03:21;99002.00;;;17.40
68012;BMP180;54794;48.348;7.878;2022-10-31T16:05:58;99008.00;;;17.00
68012;BMP180;54794;48.348;7.878;2022-10-31T16:08:34;99020.00;;;17.10
68012;BMP180;54794;48.348;7.878;2022-10-31T16:13:37;98993.00;;;17.60
68012;BMP180;54794;48.348;7.878;2022-10-31T16:16:15;98992.00;;;17.20
68012;BMP180;54794;48.348;7.878;2022-10-31T16:19:05;99004.00;;;16.90
68012;BMP180;54794;48.348;7.878;2022-10-31T16:21:39;99004.00;;;17.30
68012;BMP180;54794;48.348;7.878;2022-10-31T16:26:52;99011.00;;;16.90
68012;BMP180;54794;48.348;7.878;2022-10-31T16:29:42;99022.00;;;16.90
68012;BMP180;54794;48.348;7.878;2022-10-31T16:32:33;99020.00;;;17.40
68012;BMP180;54794;48.348;7.878;2022-10-31T16:37:40;99023.00;;;17.00
68012;BMP180;54794;48.348;7.878;2022-10-31T16:40:14;99008.00;;;17.20
68012;BMP180;54794;48.348;7.878;2022-10-31T16:43:01;99004.00;;;16.70
68012;BMP180;54794;48.348;7.878;2022-10-31T16:45:30;99020.00;;;16.50
68012;BMP180;54794;48.348;7.878;2022-10-31T16:48:08;99017.00;;;16.70
68012;BMP180;54794;48.348;7.878;2022-10-31T16:50:54;99012.00;;;17.00
68012;BMP180;54794;48.348;7.878;2022-10-31T16:53:49;99039.00;;;16.00
68012;BMP180;54794;48.348;7.878;2022-10-31T17:00:30;99056.00;;;16.50
68012;BMP180;54794;48.348;7.878;2022-10-31T17:02:57;99071.00;;;16.80
68012;BMP180;54794;48.348;7.878;2022-10-31T17:05:25;99056.00;;;16.80
68012;BMP180;54794;48.348;7.878;2022-10-31T17:07:59;99052.00;;;17.00
68012;BMP180;54794;48.348;7.878;2022-10-31T17:10:27;99064.00;;;16.90
68012;BMP180;54794;48.348;7.878;2022-10-31T17:12:55;99061.00;;;16.50
68012;BMP180;54794;48.348;7.878;2022-10-31T17:15:26;99061.00;;;16.90
68012;BMP180;54794;48.348;7.878;2022-10-31T17:17:54;99060.00;;;16.90
68012;BMP180;54794;48.348;7.878;2022-10-31T17:20:30;99082.00;;;16.20
68012;BMP180;54794;48.348;7.878;2022-10-31T17:22:58;99074.00;;;16.70
68012;BMP180;54794;48.348;7.878;2022-10-31T17:25:29;99076.00;;;16.80
68012;BMP180;54794;48.348;7.878;2022-10-31T17:27:57;99078.00;;;16.40
68012;BMP180;54794;48.348;7.878;2022-10-31T17:30:25;99069.00;;;16.70
68012;BMP180;54794;48.348;7.878;2022-10-31T17:32:52;99068.00;;;16.80
68012;BMP180;54794;48.348;7.878;2022-10-31T17:35:19;99072.00;;;16.50
68012;BMP180;54794;48.348;7.878;2022-10-31T17:37:47;99074.00;;;16.10
68012;BMP180;54794;48.348;7.878;2022-10-31T17:40:18;99066.00;;;16.10
68012;BMP180;54794;48.348;7.878;2022-10-31T17:42:56;99065.00;;;16.50
68012;BMP180;54794;48.348;7.878;2022-10-31T17:45:25;99063.00;;;16.20
68012;BMP180;54794;48.348;7.878;2022-10-31T17:47:53;99080.00;;;15.60
68012;BMP180;54794;48.348;7.878;2022-10-31T17:50:23;99079.00;;;16.00
68012;BMP180;54794;48.348;7.878;2022-10-31T17:52:51;99077.00;;;16.10
68012;BMP180;54794;48.348;7.878;2022-10-31T17:55:18;99077.00;;;16.00
68012;BMP180;54794;48.348;7.878;2022-10-31T17:57:45;99069.00;;;16.10
68012;BMP180;54794;48.348;7.878;2022-10-31T18:00:17;99069.00;;;16.00
68012;BMP180;54794;48.348;7.878;2022-10-31T18:02:45;99070.00;;;16.20
68012;BMP180;54794;48.348;7.878;2022-10-31T18:05:12;99072.00;;;16.10
68012;BMP180;54794;48.348;7.878;2022-10-31T18:07:39;99069.00;;;16.00
68012;BMP180;54794;48.348;7.878;2022-10-31T18:10:07;99066.00;;;15.70
68012;BMP180;54794;48.348;7.878;2022-10-31T18:12:37;99066.00;;;16.00
68012;BMP180;54794;48.348;7.878;2022-10-31T18:15:05;99072.00;;;15.70
68012;BMP180;54794;48.348;7.878;2022-10-31T18:17:32;99090.00;;;15.70
68012;BMP180;54794;48.348;7.878;2022-10-31T18:20:02;99099.00;;;15.60
68012;BMP180;54794;48.348;7.878;2022-10-31T18:22:30;99098.00;;;15.80
68012;BMP180;54794;48.348;7.878;2022-10-31T18:24:57;99097.00;;;15.80
68012;BMP180;54794;48.348;7.878;2022-10-31T18:27:28;99093.00;;;15.90
68012;BMP180;54794;48.348;7.878;2022-10-31T18:29:54;99078.00;;;16.00
68012;BMP180;54794;48.348;7.878;2022-10-31T18:32:21;99079.00;;;16.00
68012;BMP180;54794;48.348;7.878;2022-10-31T18:34:49;99067.00;;;16.00
68012;BMP180;54794;48.348;7.878;2022-10-31T18:37:16;99056.00;;;15.90
68012;BMP180;54794;48.348;7.878;2022-10-31T18:39:42;99074.00;;;15.50
68012;BMP180;54794;48.348;7.878;2022-10-31T18:42:09;99074.00;;;15.30
68012;BMP180;54794;48.348;7.878;2022-10-31T18:44:36;99092.00;;;15.20
68012;BMP180;54794;48.348;7.878;2022-10-31T18:47:04;99094.00;;;15.30
68012;BMP180;54794;48.348;7.878;2022-10-31T18:49:30;99092.00;;;15.50
68012;BMP180;54794;48.348;7.878;2022-10-31T18:51:59;99090.00;;;15.40
68012;BMP180;54794;48.348;7.878;2022-10-31T18:54:26;99091.00;;;15.30
68012;BMP180;54794;48.348;7.878;2022-10-31T18:56:53;99111.00;;;15.30
68012;BMP180;54794;48.348;7.878;2022-10-31T18:59:21;99092.00;;;15.40
68012;BMP180;54794;48.348;7.878;2022-10-31T19:01:48;99091.00;;;15.30
68012;BMP180;54794;48.348;7.878;2022-10-31T19:04:15;99098.00;;;15.00
68012;BMP180;54794;48.348;7.878;2022-10-31T19:06:42;99104.00;;;14.70
68012;BMP180;54794;48.348;7.878;2022-10-31T19:09:09;99095.00;;;14.80
68012;BMP180;54794;48.348;7.878;2022-10-31T19:11:37;99091.00;;;14.90
68012;BMP180;54794;48.348;7.878;2022-10-31T19:14:04;99084.00;;;15.30
68012;BMP180;54794;48.348;7.878;2022-10-31T19:16:34;99081.00;;;15.40
68012;BMP180;54794;48.348;7.878;2022-10-31T19:19:01;99075.00;;;15.50
68012;BMP180;54794;48.348;7.878;2022-10-31T19:21:28;99077.00;;;15.40
68012;BMP180;54794;48.348;7.878;2022-10-31T19:23:58;99081.00;;;15.10
68012;BMP180;54794;48.348;7.878;2022-10-31T19:26:26;99088.00;;;15.10
68012;BMP180;54794;48.348;7.878;2022-10-31T19:28:55;99078.00;;;14.90
68012;BMP180;54794;48.348;7.878;2022-10-31T19:31:23;99081.00;;;15.20
68012;BMP180;54794;48.348;7.878;2022-10-31T19:33:50;99085.00;;;15.10
68012;BMP180;54794;48.348;7.878;2022-10-31T19:36:19;99082.00;;;15.40
68012;BMP180;54794;48.348;7.878;2022-10-31T19:38:48;99074.00;;;15.30
68012;BMP180;54794;48.348;7.878;2022-10-31T19:41:20;99084.00;;;15.10
68012;BMP180;54794;48.348;7.878;2022-10-31T19:43:48;99079.00;;;15.20
68012;BMP180;54794;48.348;7.878;2022-10-31T19:46:16;99079.00;;;15.00
68012;BMP180;54794;48.348;7.878;2022-10-31T19:48:59;99085.00;;;15.10
68012;BMP180;54794;48.348;7.878;2022-10-31T19:51:26;99073.00;;;15.20
68012;BMP180;54794;48.348;7.878;2022-10-31T19:53:53;99070.00;;;15.10
68012;BMP180;54794;48.348;7.878;2022-10-31T19:56:23;99075.00;;;15.10
68012;BMP180;54794;48.348;7.878;2022-10-31T19:58:50;99071.00;;;15.10
68012;BMP180;54794;48.348;7.878;2022-10-31T20:01:21;99072.00;;;14.90
68012;BMP180;54794;48.348;7.878;2022-10-31T20:03:49;99072.00;;;14.90
68012;BMP180;54794;48.348;7.878;2022-10-31T20:06:35;99068.00;;;14.90
68012;BMP180;54794;48.348;7.878;2022-10-31T20:09:07;99067.00;;;15.00
68012;BMP180;54794;48.348;7.878;2022-10-31T20:11:36;99065.00;;;14.80
68012;BMP180;54794;48.348;7.878;2022-10-31T20:14:05;99070.00;;;14.80
68012;BMP180;54794;48.348;7.878;2022-10-31T20:16:33;99068.00;;;14.90
68012;BMP180;54794;48.348;7.878;2022-10-31T20:19:00;99066.00;;;14.80
68012;BMP180;54794;48.348;7.878;2022-10-31T20:21:30;99062.00;;;14.90
68012;BMP180;54794;48.348;7.878;2022-10-31T20:24:01;99054.00;;;14.80
68012;BMP180;54794;48.348;7.878;2022-10-31T20:26:30;99053.00;;;14.80
68012;BMP180;54794;48.348;7.878;2022-10-31T20:29:00;99059.00;;;14.90
68012;BMP180;54794;48.348;7.878;2022-10-31T20:31:30;99049.00;;;14.80
68012;BMP180;54794;48.348;7.878;2022-10-31T20:33:58;99041.00;;;14.70
68012;BMP180;54794;48.348;7.878;2022-10-31T20:36:25;99041.00;;;14.80
68012;BMP180;54794;48.348;7.878;2022-10-31T20:38:54;99039.00;;;14.70
68012;BMP180;54794;48.348;7.878;2022-10-31T20:41:21;99038.00;;;14.50
68012;BMP180;54794;48.348;7.878;2022-10-31T20:43:49;99035.00;;;14.60
68012;BMP180;54794;48.348;7.878;2022-10-31T20:46:22;99031.00;;;14.50
68012;BMP180;54794;48.348;7.878;2022-10-31T20:48:51;99041.00;;;14.50
68012;BMP180;54794;48.348;7.878;2022-10-31T20:51:25;99025.00;;;14.60
68012;BMP180;54794;48.348;7.878;2022-10-31T20:53:58;99017.00;;;14.40
68012;BMP180;54794;48.348;7.878;2022-10-31T20:56:27;99032.00;;;14.40
68012;BMP180;54794;48.348;7.878;2022-10-31T20:58:55;99030.00;;;14.60
68012;BMP180;54794;48.348;7.878;2022-10-31T21:01:27;99027.00;;;14.70
68012;BMP180;54794;48.348;7.878;2022-10-31T21:03:55;99017.00;;;14.80
68012;BMP180;54794;48.348;7.878;2022-10-31T21:06:24;99032.00;;;14.70
68012;BMP180;54794;48.348;7.878;2022-10-31T21:08:52;99030.00;;;14.70
68012;BMP180;54794;48.348;7.878;2022-10-31T21:11:23;99034.00;;;14.80
68012;BMP180;54794;48.348;7.878;2022-10-31T21:13:51;99043.00;;;14.80
68012;BMP180;54794;48.348;7.878;2022-10-31T21:16:22;99059.00;;;14.60
68012;BMP180;54794;48.348;7.878;2022-10-31T21:18:50;99051.00;;;14.60
68012;BMP180;54794;48.348;7.878;2022-10-31T21:21:28;99061.00;;;14.50
68012;BMP180;54794;48.348;7.878;2022-10-31T21:24:06;99057.00;;;14.60
68012;BMP180;54794;48.348;7.878;2022-10-31T21:26:38;99058.00;;;14.70
68012;BMP180;54794;48.348;7.878;2022-10-31T21:29:06;99040.00;;;14.50
68012;BMP180;54794;48.348;7.878;2022-10-31T21:31:35;99039.00;;;14.50
68012;BMP180;54794;48.348;7.878;2022-10-31T21:34:03;99029.00;;;14.60
68012;BMP180;54794;48.348;7.878;2022-10-31T21:36:30;99032.00;;;14.50
68012;BMP180;54794;48.348;7.878;2022-10-31T21:38:57;99025.00;;;14.50
68012;BMP180;54794;48.348;7.878;2022-10-31T21:41:24;99027.00;;;14.50
68012;BMP180;54794;48.348;7.878;2022-10-31T21:43:53;99038.00;;;14.60
68012;BMP180;54794;48.348;7.878;2022-10-31T21:46:24;99016.00;;;14.70
68012;BMP180;54794;48.348;7.878;2022-10-31T21:48:52;99007.00;;;14.60
68012;BMP180;54794;48.348;7.878;2022-10-31T21:51:31;99023.00;;;14.50
68012;BMP180;54794;48.348;7.878;2022-10-31T21:53:59;99002.00;;;14.70
68012;BMP180;54794;48.348;7.878;2022-10-31T21:56:44;99028.00;;;14.60
68012;BMP180;54794;48.348;7.878;2022-10-31T21:59:11;99017.00;;;14.50
68012;BMP180;54794;48.348;7.878;2022-10-31T22:01:39;99036.00;;;14.40
68012;BMP180;54794;48.348;7.878;2022-10-31T22:04:07;99047.00;;;14.40
68012;BMP180;54794;48.348;7.878;2022-10-31T22:06:35;99049.00;;;14.40
68012;BMP180;54794;48.348;7.878;2022-10-31T22:09:05;99026.00;;;14.50
68012;BMP180;54794;48.348;7.878;2022-10-31T22:11:32;99033.00;;;14.40
68012;BMP180;54794;48.348;7.878;2022-10-31T22:14:00;99027.00;;;14.40
68012;BMP180;54794;48.348;7.878;2022-10-31T22:16:29;99038.00;;;14.20
68012;BMP180;54794;48.348;7.878;2022-10-31T22:18:58;99028.00;;;14.50
68012;BMP180;54794;48.348;7.878;2022-10-31T22:21:27;99024.00;;;14.50
68012;BMP180;54794;48.348;7.878;2022-10-31T22:23:58;99024.00;;;14.50
68012;BMP180;54794;48.348;7.878;2022-10-31T22:26:31;99024.00;;;14.50
68012;BMP180;54794;48.348;7.878;2022-10-31T22:28:58;99031.00;;;14.30
68012;BMP180;54794;48.348;7.878;2022-10-31T22:31:29;99029.00;;;14.20
68012;BMP180;54794;48.348;7.878;2022-10-31T22:33:57;99036.00;;;14.10
68012;BMP180;54794;48.348;7.878;2022-10-31T22:36:27;99039.00;;;13.80
68012;BMP180;54794;48.348;7.878;2022-10-31T22:38:55;99041.00;;;13.70
68012;BMP180;54794;48.348;7.878;2022-10-31T22:41:26;99049.00;;;13.70
68012;BMP180;54794;48.348;7.878;2022-10-31T22:43:54;99053.00;;;13.60
68012;BMP180;54794;48.348;7.878;2022-10-31T22:46:26;99043.00;;;13.90
68012;BMP180;54794;48.348;7.878;2022-10-31T22:48:57;99044.00;;;14.10
68012;BMP180;54794;48.348;7.878;2022-10-31T22:51:31;99034.00;;;14.40
68012;BMP180;54794;48.348;7.878;2022-10-31T22:53:58;99031.00;;;14.40
68012;BMP180;54794;48.348;7.878;2022-10-31T22:56:30;99038.00;;;14.30
68012;BMP180;54794;48.348;7.878;2022-10-31T22:58:58;99025.00;;;14.00
68012;BMP180;54794;48.348;7.878;2022-10-31T23:01:30;99021.00;;;13.90
68012;BMP180;54794;48.348;7.878;2022-10-31T23:03:59;99021.00;;;14.00
68012;BMP180;54794;48.348;7.878;2022-10-31T23:06:30;99021.00;;;14.20
68012;BMP180;54794;48.348;7.878;2022-10-31T23:09:00;99021.00;;;14.20
68012;BMP180;54794;48.348;7.878;2022-10-31T23:11:34;99010.00;;;14.30
68012;BMP180;54794;48.348;7.878;2022-10-31T23:14:04;99019.00;;;14.00
68012;BMP180;54794;48.348;7.878;2022-10-31T23:16:47;99018.00;;;14.00
68012;BMP180;54794;48.348;7.878;2022-10-31T23:19:25;99016.00;;;14.10
68012;BMP180;54794;48.348;7.878;2022-10-31T23:21:58;99014.00;;;13.90
68012;BMP180;54794;48.348;7.878;2022-10-31T23:24:41;99002.00;;;14.10
68012;BMP180;54794;48.348;7.878;2022-10-31T23:27:21;99005.00;;;14.20
68012;BMP180;54794;48.348;7.878;2022-10-31T23:29:49;98999.00;;;14.10
68012;BMP180;54794;48.348;7.878;2022-10-31T23:32:33;99009.00;;;14.20
68012;BMP180;54794;48.348;7.878;2022-10-31T23:35:09;99005.00;;;14.30
68012;BMP180;54794;48.348;7.878;2022-10-31T23:37:37;99003.00;;;14.30
68012;BMP180;54794;48.348;7.878;2022-10-31T23:40:06;99010.00;;;14.30
68012;BMP180;54794;48.348;7.878;2022-10-31T23:42:34;99006.00;;;14.10
68012;BMP180;54794;48.348;7.878;2022-10-31T23:45:01;99004.00;;;14.20
68012;BMP180;54794;48.348;7.878;2022-10-31T23:47:27;99003.00;;;14.40
68012;BMP180;54794;48.348;7.878;2022-10-31T23:49:54;99007.00;;;14.40
68012;BMP180;54794;48.348;7.878;2022-10-31T23:52:21;98995.00;;;14.50
68012;BMP180;54794;48.348;7.878;2022-10-31T23:54:48;99005.00;;;14.40
68012;BMP180;54794;48.348;7.878;2022-10-31T23:57:15;99003.00;;;14.40
68012;BMP180;54794;48.348;7.878;2022-10-31T23:59:43;99001.00;;;14.40
